sensor_id;sensor_type;location;lat;lon;timestamp;P1;durP1;ratioP1;P2;durP2;ratioP2
25657;SDS011;13517;59.320;18.042;2022-08-21T00:01:19;6.45;;;1.83;;
25657;SDS011;13517;59.320;18.042;2022-08-21T00:03:48;11.98;;;2.25;;
25657;SDS011;13517;59.320;18.042;2022-08-21T00:06:14;5.15;;;1.50;;
25657;SDS011;13517;59.320;18.042;2022-08-21T00:08:40;6.15;;;1.63;;
25657;SDS011;13517;59.320;18.042;2022-08-21T00:11:05;8.98;;;1.92;;
25657;SDS011;13517;59.320;18.042;2022-08-21T00:13:31;9.18;;;1.55;;
25657;SDS011;13517;59.320;18.042;2022-08-21T00:15:57;5.15;;;1.60;;
25657;SDS011;13517;59.320;18.042;2022-08-21T00:18:23;6.57;;;1.60;;
25657;SDS011;13517;59.320;18.042;2022-08-21T00:20:49;8.52;;;2.05;;
25657;SDS011;13517;59.320;18.042;2022-08-21T00:23:14;7.95;;;2.13;;
25657;SDS011;13517;59.320;18.042;2022-08-21T00:25:41;9.43;;;1.92;;
25657;SDS011;13517;59.320;18.042;2022-08-21T00:28:08;9.30;;;1.90;;
25657;SDS011;13517;59.320;18.042;2022-08-21T00:30:33;9.30;;;1.80;;
25657;SDS011;13517;59.320;18.042;2022-08-21T00:32:59;8.88;;;1.73;;
25657;SDS011;13517;59.320;18.042;2022-08-21T00:35:27;5.72;;;1.90;;
25657;SDS011;13517;59.320;18.042;2022-08-21T00:37:55;5.05;;;1.65;;
25657;SDS011;13517;59.320;18.042;2022-08-21T00:40:23;6.10;;;1.48;;
25657;SDS011;13517;59.320;18.042;2022-08-21T00:42:52;7.45;;;1.67;;
25657;SDS011;13517;59.320;18.042;2022-08-21T00:45:18;7.07;;;1.52;;
25657;SDS011;13517;59.320;18.042;2022-08-21T00:47:43;6.82;;;1.88;;
25657;SDS011;13517;59.320;18.042;2022-08-21T00:50:09;10.50;;;2.00;;
25657;SDS011;13517;59.320;18.042;2022-08-21T00:52:35;6.13;;;2.38;;
25657;SDS011;13517;59.320;18.042;2022-08-21T00:55:03;12.95;;;2.13;;
25657;SDS011;13517;59.320;18.042;2022-08-21T00:57:32;10.77;;;2.05;;
25657;SDS011;13517;59.320;18.042;2022-08-21T01:00:03;7.53;;;2.53;;
25657;SDS011;13517;59.320;18.042;2022-08-21T01:02:31;10.95;;;2.13;;
25657;SDS011;13517;59.320;18.042;2022-08-21T01:04:56;5.90;;;1.92;;
25657;SDS011;13517;59.320;18.042;2022-08-21T01:07:22;3.38;;;1.42;;
25657;SDS011;13517;59.320;18.042;2022-08-21T01:09:47;7.22;;;1.95;;
25657;SDS011;13517;59.320;18.042;2022-08-21T01:12:13;10.32;;;2.03;;
25657;SDS011;13517;59.320;18.042;2022-08-21T01:14:40;5.20;;;1.73;;
25657;SDS011;13517;59.320;18.042;2022-08-21T01:17:07;10.82;;;1.88;;
25657;SDS011;13517;59.320;18.042;2022-08-21T01:19:35;7.82;;;1.80;;
25657;SDS011;13517;59.320;18.042;2022-08-21T01:22:01;8.93;;;1.80;;
25657;SDS011;13517;59.320;18.042;2022-08-21T01:24:27;9.55;;;2.15;;
25657;SDS011;13517;59.320;18.042;2022-08-21T01:26:52;10.63;;;2.50;;
25657;SDS011;13517;59.320;18.042;2022-08-21T01:29:39;8.63;;;2.38;;
25657;SDS011;13517;59.320;18.042;2022-08-21T01:32:12;9.95;;;2.10;;
25657;SDS011;13517;59.320;18.042;2022-08-21T01:34:40;7.30;;;2.20;;
25657;SDS011;13517;59.320;18.042;2022-08-21T01:37:08;11.20;;;2.10;;
25657;SDS011;13517;59.320;18.042;2022-08-21T01:39:35;6.53;;;2.22;;
25657;SDS011;13517;59.320;18.042;2022-08-21T01:42:01;7.75;;;2.00;;
25657;SDS011;13517;59.320;18.042;2022-08-21T01:44:27;7.20;;;1.70;;
25657;SDS011;13517;59.320;18.042;2022-08-21T01:46:53;11.15;;;2.13;;
25657;SDS011;13517;59.320;18.042;2022-08-21T01:49:19;9.52;;;2.83;;
25657;SDS011;13517;59.320;18.042;2022-08-21T01:51:44;7.40;;;2.05;;
25657;SDS011;13517;59.320;18.042;2022-08-21T01:54:09;8.18;;;1.98;;
25657;SDS011;13517;59.320;18.042;2022-08-21T01:56:36;6.70;;;2.33;;
25657;SDS011;13517;59.320;18.042;2022-08-21T01:59:04;8.68;;;1.80;;
25657;SDS011;13517;59.320;18.042;2022-08-21T02:01:29;10.98;;;2.30;;
25657;SDS011;13517;59.320;18.042;2022-08-21T02:03:54;9.00;;;2.30;;
25657;SDS011;13517;59.320;18.042;2022-08-21T02:06:20;12.23;;;2.55;;
25657;SDS011;13517;59.320;18.042;2022-08-21T02:08:45;5.28;;;2.03;;
25657;SDS011;13517;59.320;18.042;2022-08-21T02:11:11;7.53;;;2.20;;
25657;SDS011;13517;59.320;18.042;2022-08-21T02:13:36;6.80;;;2.00;;
25657;SDS011;13517;59.320;18.042;2022-08-21T02:16:02;8.38;;;2.38;;
25657;SDS011;13517;59.320;18.042;2022-08-21T02:18:28;12.82;;;2.50;;
25657;SDS011;13517;59.320;18.042;2022-08-21T02:20:54;7.65;;;2.10;;
25657;SDS011;13517;59.320;18.042;2022-08-21T02:23:20;11.38;;;2.35;;
25657;SDS011;13517;59.320;18.042;2022-08-21T02:25:45;11.18;;;2.33;;
25657;SDS011;13517;59.320;18.042;2022-08-21T02:28:12;7.63;;;1.92;;
25657;SDS011;13517;59.320;18.042;2022-08-21T02:30:43;8.52;;;2.75;;
25657;SDS011;13517;59.320;18.042;2022-08-21T02:33:10;10.43;;;2.00;;
25657;SDS011;13517;59.320;18.042;2022-08-21T02:35:37;11.25;;;2.80;;
25657;SDS011;13517;59.320;18.042;2022-08-21T02:38:05;15.13;;;2.45;;
25657;SDS011;13517;59.320;18.042;2022-08-21T02:40:34;10.63;;;3.00;;
25657;SDS011;13517;59.320;18.042;2022-08-21T02:43:02;7.90;;;2.30;;
25657;SDS011;13517;59.320;18.042;2022-08-21T02:45:28;9.63;;;2.55;;
25657;SDS011;13517;59.320;18.042;2022-08-21T02:47:55;10.98;;;2.55;;
25657;SDS011;13517;59.320;18.042;2022-08-21T02:50:25;10.68;;;2.55;;
25657;SDS011;13517;59.320;18.042;2022-08-21T02:52:52;7.32;;;2.20;;
25657;SDS011;13517;59.320;18.042;2022-08-21T02:55:19;12.50;;;2.28;;
25657;SDS011;13517;59.320;18.042;2022-08-21T02:57:45;8.55;;;2.80;;
25657;SDS011;13517;59.320;18.042;2022-08-21T03:00:11;9.52;;;2.10;;
25657;SDS011;13517;59.320;18.042;2022-08-21T03:02:38;10.55;;;2.30;;
25657;SDS011;13517;59.320;18.042;2022-08-21T03:05:05;13.10;;;2.55;;
25657;SDS011;13517;59.320;18.042;2022-08-21T03:07:31;10.23;;;2.60;;
25657;SDS011;13517;59.320;18.042;2022-08-21T03:09:57;8.35;;;2.50;;
25657;SDS011;13517;59.320;18.042;2022-08-21T03:12:22;9.32;;;2.80;;
25657;SDS011;13517;59.320;18.042;2022-08-21T03:14:48;11.63;;;2.38;;
25657;SDS011;13517;59.320;18.042;2022-08-21T03:17:13;9.70;;;3.00;;
25657;SDS011;13517;59.320;18.042;2022-08-21T03:19:39;15.38;;;3.05;;
25657;SDS011;13517;59.320;18.042;2022-08-21T03:22:04;11.68;;;2.50;;
25657;SDS011;13517;59.320;18.042;2022-08-21T03:24:30;7.22;;;2.70;;
25657;SDS011;13517;59.320;18.042;2022-08-21T03:26:55;11.85;;;2.13;;
25657;SDS011;13517;59.320;18.042;2022-08-21T03:29:21;8.38;;;2.42;;
25657;SDS011;13517;59.320;18.042;2022-08-21T03:31:46;9.35;;;2.85;;
25657;SDS011;13517;59.320;18.042;2022-08-21T03:34:12;10.82;;;3.20;;
25657;SDS011;13517;59.320;18.042;2022-08-21T03:36:37;10.55;;;2.55;;
25657;SDS011;13517;59.320;18.042;2022-08-21T03:39:03;8.48;;;2.70;;
25657;SDS011;13517;59.320;18.042;2022-08-21T03:41:28;8.18;;;2.58;;
25657;SDS011;13517;59.320;18.042;2022-08-21T03:43:53;7.53;;;2.30;;
25657;SDS011;13517;59.320;18.042;2022-08-21T03:46:19;12.85;;;2.72;;
25657;SDS011;13517;59.320;18.042;2022-08-21T03:48:45;10.57;;;2.40;;
25657;SDS011;13517;59.320;18.042;2022-08-21T03:51:10;18.13;;;2.92;;
25657;SDS011;13517;59.320;18.042;2022-08-21T03:53:37;12.13;;;3.00;;
25657;SDS011;13517;59.320;18.042;2022-08-21T03:56:03;13.07;;;2.40;;
25657;SDS011;13517;59.320;18.042;2022-08-21T03:58:29;9.15;;;2.60;;
25657;SDS011;13517;59.320;18.042;2022-08-21T04:00:56;8.93;;;2.72;;
25657;SDS011;13517;59.320;18.042;2022-08-21T04:03:23;12.55;;;2.38;;
25657;SDS011;13517;59.320;18.042;2022-08-21T04:05:49;10.85;;;2.88;;
25657;SDS011;13517;59.320;18.042;2022-08-21T04:08:15;7.60;;;2.35;;
25657;SDS011;13517;59.320;18.042;2022-08-21T04:10:43;12.50;;;2.78;;
25657;SDS011;13517;59.320;18.042;2022-08-21T04:13:11;16.25;;;4.10;;
25657;SDS011;13517;59.320;18.042;2022-08-21T04:15:37;11.02;;;2.22;;
25657;SDS011;13517;59.320;18.042;2022-08-21T04:18:03;11.02;;;2.58;;
25657;SDS011;13517;59.320;18.042;2022-08-21T04:20:29;13.07;;;3.40;;
25657;SDS011;13517;59.320;18.042;2022-08-21T04:22:54;11.10;;;2.58;;
25657;SDS011;13517;59.320;18.042;2022-08-21T04:25:20;10.30;;;2.50;;
25657;SDS011;13517;59.320;18.042;2022-08-21T04:27:47;15.65;;;3.10;;
25657;SDS011;13517;59.320;18.042;2022-08-21T04:30:14;7.93;;;2.40;;
25657;SDS011;13517;59.320;18.042;2022-08-21T04:32:43;12.52;;;3.10;;
25657;SDS011;13517;59.320;18.042;2022-08-21T04:35:14;11.63;;;2.47;;
25657;SDS011;13517;59.320;18.042;2022-08-21T04:37:41;11.43;;;2.53;;
25657;SDS011;13517;59.320;18.042;2022-08-21T04:40:07;11.10;;;2.42;;
25657;SDS011;13517;59.320;18.042;2022-08-21T04:42:40;7.15;;;2.30;;
25657;SDS011;13517;59.320;18.042;2022-08-21T04:45:18;13.10;;;2.67;;
25657;SDS011;13517;59.320;18.042;2022-08-21T04:47:49;11.98;;;3.13;;
25657;SDS011;13517;59.320;18.042;2022-08-21T04:50:20;9.15;;;2.08;;
25657;SDS011;13517;59.320;18.042;2022-08-21T04:52:49;10.02;;;2.30;;
25657;SDS011;13517;59.320;18.042;2022-08-21T04:55:15;16.52;;;2.90;;
25657;SDS011;13517;59.320;18.042;2022-08-21T04:57:42;16.13;;;2.88;;
25657;SDS011;13517;59.320;18.042;2022-08-21T05:00:08;11.00;;;2.90;;
25657;SDS011;13517;59.320;18.042;2022-08-21T05:02:35;10.90;;;2.65;;
25657;SDS011;13517;59.320;18.042;2022-08-21T05:05:02;12.48;;;2.97;;
25657;SDS011;13517;59.320;18.042;2022-08-21T05:07:29;13.57;;;2.70;;
25657;SDS011;13517;59.320;18.042;2022-08-21T05:09:56;9.35;;;3.10;;
25657;SDS011;13517;59.320;18.042;2022-08-21T05:12:23;10.95;;;2.75;;
25657;SDS011;13517;59.320;18.042;2022-08-21T05:14:49;8.65;;;2.35;;
25657;SDS011;13517;59.320;18.042;2022-08-21T05:17:14;16.67;;;2.67;;
25657;SDS011;13517;59.320;18.042;2022-08-21T05:19:40;13.93;;;2.92;;
25657;SDS011;13517;59.320;18.042;2022-08-21T05:22:05;16.60;;;2.90;;
25657;SDS011;13517;59.320;18.042;2022-08-21T05:24:31;13.73;;;3.15;;
25657;SDS011;13517;59.320;18.042;2022-08-21T05:26:56;9.38;;;2.38;;
25657;SDS011;13517;59.320;18.042;2022-08-21T05:29:22;13.07;;;3.03;;
25657;SDS011;13517;59.320;18.042;2022-08-21T05:31:47;14.63;;;2.85;;
25657;SDS011;13517;59.320;18.042;2022-08-21T05:34:14;16.13;;;3.10;;
25657;SDS011;13517;59.320;18.042;2022-08-21T05:36:43;13.60;;;3.10;;
25657;SDS011;13517;59.320;18.042;2022-08-21T05:39:09;13.05;;;2.75;;
25657;SDS011;13517;59.320;18.042;2022-08-21T05:41:34;9.15;;;2.47;;
25657;SDS011;13517;59.320;18.042;2022-08-21T05:44:00;14.15;;;3.30;;
25657;SDS011;13517;59.320;18.042;2022-08-21T05:46:25;14.80;;;2.95;;
25657;SDS011;13517;59.320;18.042;2022-08-21T05:48:51;11.05;;;2.35;;
25657;SDS011;13517;59.320;18.042;2022-08-21T05:51:16;8.75;;;2.60;;
25657;SDS011;13517;59.320;18.042;2022-08-21T05:53:42;9.27;;;2.40;;
25657;SDS011;13517;59.320;18.042;2022-08-21T05:56:09;11.63;;;3.05;;
25657;SDS011;13517;59.320;18.042;2022-08-21T05:58:35;15.45;;;3.10;;
25657;SDS011;13517;59.320;18.042;2022-08-21T06:01:01;8.48;;;2.28;;
25657;SDS011;13517;59.320;18.042;2022-08-21T06:03:30;8.48;;;2.25;;
25657;SDS011;13517;59.320;18.042;2022-08-21T06:05:58;11.25;;;2.80;;
25657;SDS011;13517;59.320;18.042;2022-08-21T06:08:24;13.02;;;3.00;;
25657;SDS011;13517;59.320;18.042;2022-08-21T06:10:51;21.17;;;3.25;;
25657;SDS011;13517;59.320;18.042;2022-08-21T06:13:18;13.70;;;2.92;;
25657;SDS011;13517;59.320;18.042;2022-08-21T06:15:45;16.92;;;3.65;;
25657;SDS011;13517;59.320;18.042;2022-08-21T06:18:11;14.52;;;3.00;;
25657;SDS011;13517;59.320;18.042;2022-08-21T06:20:36;7.38;;;2.65;;
25657;SDS011;13517;59.320;18.042;2022-08-21T06:23:02;11.73;;;3.10;;
25657;SDS011;13517;59.320;18.042;2022-08-21T06:25:28;11.32;;;3.03;;
25657;SDS011;13517;59.320;18.042;2022-08-21T06:28:02;10.55;;;3.10;;
25657;SDS011;13517;59.320;18.042;2022-08-21T06:30:29;16.10;;;3.40;;
25657;SDS011;13517;59.320;18.042;2022-08-21T06:32:54;11.50;;;3.42;;
25657;SDS011;13517;59.320;18.042;2022-08-21T06:35:19;15.52;;;3.30;;
25657;SDS011;13517;59.320;18.042;2022-08-21T06:37:45;12.45;;;3.00;;
25657;SDS011;13517;59.320;18.042;2022-08-21T06:40:10;12.90;;;2.97;;
25657;SDS011;13517;59.320;18.042;2022-08-21T06:42:36;7.85;;;2.60;;
25657;SDS011;13517;59.320;18.042;2022-08-21T06:45:02;15.23;;;3.35;;
25657;SDS011;13517;59.320;18.042;2022-08-21T06:47:28;16.08;;;2.80;;
25657;SDS011;13517;59.320;18.042;2022-08-21T06:49:53;16.95;;;2.72;;
25657;SDS011;13517;59.320;18.042;2022-08-21T06:52:19;10.85;;;2.78;;
25657;SDS011;13517;59.320;18.042;2022-08-21T06:54:44;11.13;;;2.78;;
25657;SDS011;13517;59.320;18.042;2022-08-21T06:57:10;14.63;;;3.00;;
25657;SDS011;13517;59.320;18.042;2022-08-21T06:59:35;10.90;;;2.67;;
25657;SDS011;13517;59.320;18.042;2022-08-21T07:02:01;12.50;;;3.40;;
25657;SDS011;13517;59.320;18.042;2022-08-21T07:04:26;14.90;;;3.33;;
25657;SDS011;13517;59.320;18.042;2022-08-21T07:06:51;12.05;;;3.03;;
25657;SDS011;13517;59.320;18.042;2022-08-21T07:09:17;13.50;;;2.78;;
25657;SDS011;13517;59.320;18.042;2022-08-21T07:11:42;13.55;;;2.78;;
25657;SDS011;13517;59.320;18.042;2022-08-21T07:14:12;13.20;;;2.78;;
25657;SDS011;13517;59.320;18.042;2022-08-21T07:16:38;11.55;;;2.42;;
25657;SDS011;13517;59.320;18.042;2022-08-21T07:19:03;15.25;;;3.80;;
25657;SDS011;13517;59.320;18.042;2022-08-21T07:21:28;10.63;;;2.75;;
25657;SDS011;13517;59.320;18.042;2022-08-21T07:23:54;12.77;;;3.03;;
25657;SDS011;13517;59.320;18.042;2022-08-21T07:26:20;10.55;;;2.70;;
25657;SDS011;13517;59.320;18.042;2022-08-21T07:28:48;8.63;;;2.63;;
25657;SDS011;13517;59.320;18.042;2022-08-21T07:31:15;14.23;;;2.60;;
25657;SDS011;13517;59.320;18.042;2022-08-21T07:33:42;10.68;;;2.60;;
25657;SDS011;13517;59.320;18.042;2022-08-21T07:36:08;11.32;;;2.83;;
25657;SDS011;13517;59.320;18.042;2022-08-21T07:38:34;9.20;;;3.22;;
25657;SDS011;13517;59.320;18.042;2022-08-21T07:41:00;11.43;;;2.92;;
25657;SDS011;13517;59.320;18.042;2022-08-21T07:43:27;16.20;;;3.67;;
25657;SDS011;13517;59.320;18.042;2022-08-21T07:45:53;10.50;;;3.45;;
25657;SDS011;13517;59.320;18.042;2022-08-21T07:48:20;9.02;;;2.58;;
25657;SDS011;13517;59.320;18.042;2022-08-21T07:50:46;14.18;;;3.17;;
25657;SDS011;13517;59.320;18.042;2022-08-21T07:53:12;14.45;;;3.05;;
25657;SDS011;13517;59.320;18.042;2022-08-21T07:55:39;11.50;;;3.55;;
25657;SDS011;13517;59.320;18.042;2022-08-21T07:58:04;10.15;;;2.95;;
25657;SDS011;13517;59.320;18.042;2022-08-21T08:00:30;12.82;;;2.63;;
25657;SDS011;13517;59.320;18.042;2022-08-21T08:02:56;13.23;;;3.10;;
25657;SDS011;13517;59.320;18.042;2022-08-21T08:05:24;9.40;;;2.80;;
25657;SDS011;13517;59.320;18.042;2022-08-21T08:07:51;16.17;;;3.03;;
25657;SDS011;13517;59.320;18.042;2022-08-21T08:10:17;11.95;;;2.78;;
25657;SDS011;13517;59.320;18.042;2022-08-21T08:12:43;11.30;;;2.47;;
25657;SDS011;13517;59.320;18.042;2022-08-21T08:15:14;9.15;;;2.58;;
25657;SDS011;13517;59.320;18.042;2022-08-21T08:17:41;10.85;;;2.78;;
25657;SDS011;13517;59.320;18.042;2022-08-21T08:20:06;13.05;;;3.15;;
25657;SDS011;13517;59.320;18.042;2022-08-21T08:22:33;10.48;;;2.60;;
25657;SDS011;13517;59.320;18.042;2022-08-21T08:25:00;11.32;;;3.08;;
25657;SDS011;13517;59.320;18.042;2022-08-21T08:27:26;12.05;;;3.15;;
25657;SDS011;13517;59.320;18.042;2022-08-21T08:29:51;11.57;;;3.33;;
25657;SDS011;13517;59.320;18.042;2022-08-21T08:32:17;5.32;;;2.70;;
25657;SDS011;13517;59.320;18.042;2022-08-21T08:34:43;10.95;;;2.85;;
25657;SDS011;13517;59.320;18.042;2022-08-21T08:37:09;10.65;;;3.15;;
25657;SDS011;13517;59.320;18.042;2022-08-21T08:39:35;11.93;;;2.63;;
25657;SDS011;13517;59.320;18.042;2022-08-21T08:42:08;12.20;;;2.85;;
25657;SDS011;13517;59.320;18.042;2022-08-21T08:44:38;10.10;;;2.20;;
25657;SDS011;13517;59.320;18.042;2022-08-21T08:47:08;12.85;;;2.85;;
25657;SDS011;13517;59.320;18.042;2022-08-21T08:49:38;8.15;;;2.55;;
25657;SDS011;13517;59.320;18.042;2022-08-21T08:52:20;8.88;;;2.85;;
25657;SDS011;13517;59.320;18.042;2022-08-21T08:54:56;15.45;;;3.03;;
25657;SDS011;13517;59.320;18.042;2022-08-21T08:57:37;8.80;;;2.30;;
25657;SDS011;13517;59.320;18.042;2022-08-21T09:00:10;8.05;;;2.70;;
25657;SDS011;13517;59.320;18.042;2022-08-21T09:02:39;11.57;;;2.38;;
25657;SDS011;13517;59.320;18.042;2022-08-21T09:05:09;6.18;;;2.17;;
25657;SDS011;13517;59.320;18.042;2022-08-21T09:16:27;7.68;;;2.28;;
25657;SDS011;13517;59.320;18.042;2022-08-21T09:24:44;11.80;;;2.75;;
25657;SDS011;13517;59.320;18.042;2022-08-21T09:27:19;9.68;;;2.65;;
25657;SDS011;13517;59.320;18.042;2022-08-21T09:29:47;6.85;;;1.90;;
25657;SDS011;13517;59.320;18.042;2022-08-21T09:34:59;10.15;;;2.47;;
25657;SDS011;13517;59.320;18.042;2022-08-21T09:37:49;8.38;;;2.45;;
25657;SDS011;13517;59.320;18.042;2022-08-21T09:45:32;9.33;;;1.87;;
25657;SDS011;13517;59.320;18.042;2022-08-21T09:50:43;6.28;;;1.98;;
25657;SDS011;13517;59.320;18.042;2022-08-21T09:55:48;7.68;;;2.05;;
25657;SDS011;13517;59.320;18.042;2022-08-21T09:58:36;7.60;;;1.98;;
25657;SDS011;13517;59.320;18.042;2022-08-21T10:01:03;6.45;;;2.17;;
25657;SDS011;13517;59.320;18.042;2022-08-21T10:03:30;7.30;;;2.20;;
25657;SDS011;13517;59.320;18.042;2022-08-21T10:08:24;4.93;;;1.98;;
25657;SDS011;13517;59.320;18.042;2022-08-21T10:10:52;9.38;;;2.20;;
25657;SDS011;13517;59.320;18.042;2022-08-21T10:13:31;12.73;;;2.90;;
25657;SDS011;13517;59.320;18.042;2022-08-21T10:18:39;7.90;;;2.10;;
25657;SDS011;13517;59.320;18.042;2022-08-21T10:21:27;5.30;;;2.13;;
25657;SDS011;13517;59.320;18.042;2022-08-21T10:24:03;6.40;;;2.05;;
25657;SDS011;13517;59.320;18.042;2022-08-21T10:29:55;6.93;;;2.55;;
25657;SDS011;13517;59.320;18.042;2022-08-21T10:32:31;9.18;;;1.90;;
25657;SDS011;13517;59.320;18.042;2022-08-21T10:35:19;7.90;;;1.80;;
25657;SDS011;13517;59.320;18.042;2022-08-21T10:38:02;8.00;;;2.13;;
25657;SDS011;13517;59.320;18.042;2022-08-21T10:40:34;8.15;;;2.58;;
25657;SDS011;13517;59.320;18.042;2022-08-21T10:43:10;6.22;;;2.03;;
25657;SDS011;13517;59.320;18.042;2022-08-21T10:48:24;5.25;;;1.70;;
25657;SDS011;13517;59.320;18.042;2022-08-21T10:50:56;6.93;;;1.55;;
25657;SDS011;13517;59.320;18.042;2022-08-21T10:53:31;7.82;;;1.90;;
25657;SDS011;13517;59.320;18.042;2022-08-21T10:56:14;6.28;;;1.83;;
25657;SDS011;13517;59.320;18.042;2022-08-21T10:59:26;5.47;;;1.75;;
25657;SDS011;13517;59.320;18.042;2022-08-21T11:04:31;7.85;;;2.10;;
25657;SDS011;13517;59.320;18.042;2022-08-21T11:07:03;6.68;;;1.92;;
25657;SDS011;13517;59.320;18.042;2022-08-21T11:09:37;6.80;;;2.08;;
25657;SDS011;13517;59.320;18.042;2022-08-21T11:12:06;7.57;;;2.28;;
25657;SDS011;13517;59.320;18.042;2022-08-21T11:14:53;4.78;;;1.90;;
25657;SDS011;13517;59.320;18.042;2022-08-21T11:17:43;10.52;;;2.10;;
25657;SDS011;13517;59.320;18.042;2022-08-21T11:20:21;7.00;;;1.90;;
25657;SDS011;13517;59.320;18.042;2022-08-21T11:23:15;13.23;;;2.58;;
25657;SDS011;13517;59.320;18.042;2022-08-21T11:25:58;9.20;;;1.88;;
25657;SDS011;13517;59.320;18.042;2022-08-21T11:28:31;8.15;;;2.70;;
25657;SDS011;13517;59.320;18.042;2022-08-21T11:31:10;9.52;;;2.53;;
25657;SDS011;13517;59.320;18.042;2022-08-21T11:33:48;7.47;;;1.90;;
25657;SDS011;13517;59.320;18.042;2022-08-21T11:39:11;19.10;;;2.28;;
25657;SDS011;13517;59.320;18.042;2022-08-21T11:42:02;7.82;;;2.20;;
25657;SDS011;13517;59.320;18.042;2022-08-21T11:50:15;9.50;;;2.50;;
25657;SDS011;13517;59.320;18.042;2022-08-21T11:52:51;6.57;;;2.20;;
25657;SDS011;13517;59.320;18.042;2022-08-21T11:55:32;7.88;;;2.10;;
25657;SDS011;13517;59.320;18.042;2022-08-21T11:58:06;7.13;;;1.90;;
25657;SDS011;13517;59.320;18.042;2022-08-21T12:00:39;6.68;;;2.03;;
25657;SDS011;13517;59.320;18.042;2022-08-21T12:03:11;6.22;;;1.92;;
25657;SDS011;13517;59.320;18.042;2022-08-21T12:05:42;6.90;;;2.00;;
25657;SDS011;13517;59.320;18.042;2022-08-21T12:11:09;10.57;;;2.03;;
25657;SDS011;13517;59.320;18.042;2022-08-21T12:16:34;5.82;;;1.80;;
25657;SDS011;13517;59.320;18.042;2022-08-21T12:19:11;6.97;;;1.98;;
25657;SDS011;13517;59.320;18.042;2022-08-21T12:26:53;9.00;;;2.33;;
25657;SDS011;13517;59.320;18.042;2022-08-21T12:29:21;9.77;;;2.08;;
25657;SDS011;13517;59.320;18.042;2022-08-21T12:31:55;9.45;;;2.30;;
25657;SDS011;13517;59.320;18.042;2022-08-21T12:34:31;4.82;;;1.58;;
25657;SDS011;13517;59.320;18.042;2022-08-21T12:37:07;6.10;;;2.28;;
25657;SDS011;13517;59.320;18.042;2022-08-21T12:39:43;6.20;;;2.00;;
25657;SDS011;13517;59.320;18.042;2022-08-21T12:42:15;6.47;;;2.38;;
25657;SDS011;13517;59.320;18.042;2022-08-21T12:44:51;3.75;;;1.92;;
25657;SDS011;13517;59.320;18.042;2022-08-21T12:47:32;5.57;;;1.60;;
25657;SDS011;13517;59.320;18.042;2022-08-21T12:50:03;3.83;;;1.27;;
25657;SDS011;13517;59.320;18.042;2022-08-21T12:52:32;5.38;;;1.30;;
25657;SDS011;13517;59.320;18.042;2022-08-21T12:55:02;4.55;;;1.50;;
25657;SDS011;13517;59.320;18.042;2022-08-21T12:57:29;3.92;;;1.45;;
25657;SDS011;13517;59.320;18.042;2022-08-21T13:00:02;2.45;;;1.05;;
25657;SDS011;13517;59.320;18.042;2022-08-21T13:02:37;3.70;;;1.30;;
25657;SDS011;13517;59.320;18.042;2022-08-21T13:05:08;4.15;;;1.20;;
25657;SDS011;13517;59.320;18.042;2022-08-21T13:07:42;3.03;;;1.27;;
25657;SDS011;13517;59.320;18.042;2022-08-21T13:10:16;2.88;;;1.35;;
25657;SDS011;13517;59.320;18.042;2022-08-21T13:12:45;4.57;;;1.50;;
25657;SDS011;13517;59.320;18.042;2022-08-21T13:15:11;5.22;;;1.33;;
25657;SDS011;13517;59.320;18.042;2022-08-21T13:17:38;4.45;;;1.52;;
25657;SDS011;13517;59.320;18.042;2022-08-21T13:20:29;6.32;;;1.92;;
25657;SDS011;13517;59.320;18.042;2022-08-21T13:23:01;3.30;;;1.25;;
25657;SDS011;13517;59.320;18.042;2022-08-21T13:25:29;4.30;;;1.20;;
25657;SDS011;13517;59.320;18.042;2022-08-21T13:30:32;2.25;;;1.10;;
25657;SDS011;13517;59.320;18.042;2022-08-21T13:32:59;5.75;;;1.30;;
25657;SDS011;13517;59.320;18.042;2022-08-21T13:35:31;3.33;;;1.55;;
25657;SDS011;13517;59.320;18.042;2022-08-21T13:38:01;3.28;;;1.08;;
25657;SDS011;13517;59.320;18.042;2022-08-21T13:40:48;3.42;;;1.48;;
25657;SDS011;13517;59.320;18.042;2022-08-21T13:43:17;3.67;;;1.40;;
25657;SDS011;13517;59.320;18.042;2022-08-21T13:45:51;2.67;;;1.13;;
25657;SDS011;13517;59.320;18.042;2022-08-21T13:48:18;4.20;;;1.50;;
25657;SDS011;13517;59.320;18.042;2022-08-21T13:50:45;5.93;;;1.45;;
25657;SDS011;13517;59.320;18.042;2022-08-21T13:53:22;2.95;;;1.00;;
25657;SDS011;13517;59.320;18.042;2022-08-21T13:55:48;2.78;;;1.35;;
25657;SDS011;13517;59.320;18.042;2022-08-21T13:58:23;3.35;;;1.30;;
25657;SDS011;13517;59.320;18.042;2022-08-21T14:01:17;2.47;;;1.17;;
25657;SDS011;13517;59.320;18.042;2022-08-21T14:03:45;2.88;;;1.02;;
25657;SDS011;13517;59.320;18.042;2022-08-21T14:08:51;5.38;;;1.20;;
25657;SDS011;13517;59.320;18.042;2022-08-21T14:11:20;2.70;;;1.33;;
25657;SDS011;13517;59.320;18.042;2022-08-21T14:13:55;3.28;;;1.15;;
25657;SDS011;13517;59.320;18.042;2022-08-21T14:16:42;5.03;;;1.40;;
25657;SDS011;13517;59.320;18.042;2022-08-21T14:19:12;2.90;;;1.10;;
25657;SDS011;13517;59.320;18.042;2022-08-21T14:21:44;5.90;;;1.83;;
25657;SDS011;13517;59.320;18.042;2022-08-21T14:24:13;3.65;;;1.67;;
25657;SDS011;13517;59.320;18.042;2022-08-21T14:26:52;4.13;;;1.48;;
25657;SDS011;13517;59.320;18.042;2022-08-21T14:29:21;6.07;;;1.60;;
25657;SDS011;13517;59.320;18.042;2022-08-21T14:31:55;5.40;;;1.33;;
25657;SDS011;13517;59.320;18.042;2022-08-21T14:34:24;4.93;;;1.70;;
25657;SDS011;13517;59.320;18.042;2022-08-21T14:36:52;3.70;;;1.42;;
25657;SDS011;13517;59.320;18.042;2022-08-21T14:39:19;3.83;;;1.48;;
25657;SDS011;13517;59.320;18.042;2022-08-21T14:41:45;4.20;;;1.85;;
25657;SDS011;13517;59.320;18.042;2022-08-21T14:44:13;5.78;;;1.80;;
25657;SDS011;13517;59.320;18.042;2022-08-21T14:46:40;3.42;;;1.63;;
25657;SDS011;13517;59.320;18.042;2022-08-21T14:49:05;3.20;;;1.40;;
25657;SDS011;13517;59.320;18.042;2022-08-21T14:51:30;3.20;;;1.40;;
25657;SDS011;13517;59.320;18.042;2022-08-21T14:53:56;3.67;;;1.85;;
25657;SDS011;13517;59.320;18.042;2022-08-21T14:56:21;3.88;;;1.35;;
25657;SDS011;13517;59.320;18.042;2022-08-21T14:58:48;4.10;;;1.30;;
25657;SDS011;13517;59.320;18.042;2022-08-21T15:01:16;4.40;;;1.30;;
25657;SDS011;13517;59.320;18.042;2022-08-21T15:03:43;6.50;;;1.30;;
25657;SDS011;13517;59.320;18.042;2022-08-21T15:06:10;4.32;;;1.30;;
25657;SDS011;13517;59.320;18.042;2022-08-21T15:08:36;2.72;;;1.58;;
25657;SDS011;13517;59.320;18.042;2022-08-21T15:11:02;2.67;;;1.10;;
25657;SDS011;13517;59.320;18.042;2022-08-21T15:13:29;4.85;;;1.70;;
25657;SDS011;13517;59.320;18.042;2022-08-21T15:15:56;4.55;;;1.40;;
25657;SDS011;13517;59.320;18.042;2022-08-21T15:18:23;3.58;;;1.45;;
25657;SDS011;13517;59.320;18.042;2022-08-21T15:20:49;1.92;;;1.17;;
25657;SDS011;13517;59.320;18.042;2022-08-21T15:23:15;2.70;;;1.50;;
25657;SDS011;13517;59.320;18.042;2022-08-21T15:25:41;2.85;;;1.42;;
25657;SDS011;13517;59.320;18.042;2022-08-21T15:28:08;6.55;;;1.70;;
25657;SDS011;13517;59.320;18.042;2022-08-21T15:30:35;5.20;;;1.50;;
25657;SDS011;13517;59.320;18.042;2022-08-21T15:33:01;6.60;;;1.88;;
25657;SDS011;13517;59.320;18.042;2022-08-21T15:35:26;1.42;;;0.98;;
25657;SDS011;13517;59.320;18.042;2022-08-21T15:37:52;4.68;;;1.60;;
25657;SDS011;13517;59.320;18.042;2022-08-21T15:40:17;3.58;;;1.70;;
25657;SDS011;13517;59.320;18.042;2022-08-21T15:42:42;3.17;;;1.33;;
25657;SDS011;13517;59.320;18.042;2022-08-21T15:45:09;5.32;;;1.83;;